Saarbrücken Airport EDDR

Flugplatz Daten

Name: Saarbrücken Airport

Ident: EDDR

Lat: 49,21459961

Long: 7,109509945

Platzhöhe: 1058 ft

IataCode: SCN

City: Saarbrücken

Homepage: http://www.flughafen-saarbruecken.de/

Metar

2022/08/15 18:50
EDDR 151850Z AUTO 24009KT CAVOK 20/14 Q1008 NOSIG

Taf

2022/08/15 18:27
TAF EDDR 151700Z 1518/1618 22009KT 9999 FEW045 PROB30
TEMPO 1518/1519 25015G30KT 4000 TSRA BKN040CB
BECMG 1519/1521 20004KT
Gewünschte Webcam nicht vorhanden? Dann fügen Sie eine hinzu. Sie wird dann so schnell wie möglich freigeschaltet
Url: Title: